This is the latest recevied weather packets stored in our database for station/object DK4SDR-10. If no packets are shown the sender has not sent any weather packets the latest 10 day(s).
| Time | Temp. | Humidity | Pressure | Rain* | Wind** | Luminosity | Snow |
|---|---|---|---|---|---|---|---|
| 1777505294 | 12.22° C | 33% | 1027.4 hPa | - | - | - | - |
| 1777504393 | 12.78° C | 32% | 1027.4 hPa | - | - | - | - |
| 1777503493 | 12.78° C | 32% | 1027.3 hPa | - | - | - | - |
| 1777502593 | 13.33° C | 31% | 1027.1 hPa | - | - | - | - |
| 1777501693 | 13.33° C | 31% | 1027 hPa | - | - | - | - |
| 1777500793 | 13.89° C | 31% | 1026.9 hPa | - | - | - | - |
| 1777499893 | 13.89° C | 31% | 1026.8 hPa | - | - | - | - |
| 1777498993 | 14.44° C | 31% | 1026.7 hPa | - | - | - | - |
| 1777498093 | 14.44° C | 30% | 1026.5 hPa | - | - | - | - |
| 1777497193 | 15° C | 29% | 1026.3 hPa | - | - | - | - |
| 1777496293 | 15° C | 29% | 1026.3 hPa | - | - | - | - |
| 1777495393 | 15.56° C | 28% | 1026 hPa | - | - | - | - |
| 1777494493 | 16.11° C | 27% | 1025.9 hPa | - | - | - | - |
| 1777493592 | 16.11° C | 27% | 1025.8 hPa | - | - | - | - |
| 1777492692 | 16.67° C | 26% | 1025.6 hPa | - | - | - | - |
| 1777491793 | 17.22° C | 26% | 1025.3 hPa | - | - | - | - |
| 1777490893 | 17.78° C | 25% | 1025.1 hPa | - | - | - | - |
| 1777489993 | 18.33° C | 24% | 1024.9 hPa | - | - | - | - |
| 1777489092 | 18.89° C | 24% | 1024.6 hPa | - | - | - | - |
| 1777488192 | 19.44° C | 23% | 1024.4 hPa | - | - | - | - |
| 1777487292 | 20° C | 23% | 1024.1 hPa | - | - | - | - |
| 1777486392 | 20.56° C | 21% | 1023.7 hPa | - | - | - | - |
| 1777485510 | 21.67° C | 20% | 1023.3 hPa | - | - | - | - |
| 1777484592 | 22.22° C | 20% | 1023.2 hPa | - | - | - | - |
| 1777483692 | 23.33° C | 18% | 1023 hPa | - | - | - | - |
* Rain since midnight (hover to see other rain measurements)
** Current wind speed in m/s (hover to see current wind gust speed)